createdAt,value
2019-02-24T00:00:12.012Z,4.80
2019-02-24T00:09:55.148Z,4.90
2019-02-24T00:12:16.885Z,5.13
2019-02-24T00:15:04.626Z,4.90
2019-02-24T00:17:46.897Z,4.97
2019-02-24T00:20:14.211Z,5.30
2019-02-24T00:22:51.564Z,4.90
2019-02-24T00:25:26.435Z,4.97
2019-02-24T00:31:13.818Z,4.93
2019-02-24T00:33:54.387Z,5.27
2019-02-24T00:36:39.418Z,4.27
2019-02-24T00:48:05.253Z,5.30
2019-02-24T00:50:56.793Z,4.73
2019-02-24T00:53:52.269Z,4.67
2019-02-24T00:56:29.030Z,5.10
2019-02-24T00:59:00.545Z,5.53
2019-02-24T01:01:37.049Z,5.50
2019-02-24T01:04:10.945Z,4.87
2019-02-24T01:06:46.873Z,5.77
2019-02-24T01:09:23.637Z,4.90
2019-02-24T01:11:56.659Z,5.20
2019-02-24T01:15:00.796Z,5.63
2019-02-24T01:17:22.063Z,5.33
2019-02-24T01:20:42.587Z,5.37
2019-02-24T01:29:28.845Z,4.57
2019-02-24T01:35:58.871Z,5.20
2019-02-24T01:38:32.791Z,4.97
2019-02-24T01:41:08.014Z,4.80
2019-02-24T01:43:46.941Z,4.87
2019-02-24T01:46:19.940Z,4.57
2019-02-24T01:48:59.085Z,4.30
2019-02-24T01:52:19.874Z,5.60
2019-02-24T01:58:05.879Z,4.97
2019-02-24T02:03:55.788Z,4.83
2019-02-24T02:06:30.711Z,3.80
2019-02-24T02:09:09.542Z,4.40
2019-02-24T02:11:44.794Z,4.90
2019-02-24T02:14:21.073Z,4.70
2019-02-24T02:17:02.234Z,4.10
2019-02-24T02:19:41.654Z,4.70
2019-02-24T02:22:37.996Z,4.87
2019-02-24T02:25:13.380Z,4.60
2019-02-24T02:27:56.884Z,4.23
2019-02-24T02:30:39.690Z,4.70
2019-02-24T02:33:14.804Z,4.87
2019-02-24T02:35:56.865Z,4.73
2019-02-24T02:38:29.520Z,5.43
2019-02-24T02:41:03.268Z,4.87
2019-02-24T02:43:36.625Z,4.83
2019-02-24T02:46:08.604Z,5.17
2019-02-24T02:49:04.683Z,4.27
2019-02-24T02:51:37.004Z,4.70
2019-02-24T02:54:21.628Z,4.27
2019-02-24T02:57:01.405Z,4.53
2019-02-24T02:59:41.888Z,4.00
2019-02-24T03:08:21.982Z,4.77
2019-02-24T03:11:14.705Z,4.17
2019-02-24T03:13:36.315Z,4.33
2019-02-24T03:16:08.482Z,3.93
2019-02-24T03:18:41.195Z,4.20
2019-02-24T03:21:21.229Z,5.00
2019-02-24T03:23:54.980Z,4.43
2019-02-24T03:26:26.359Z,3.73
2019-02-24T03:29:04.065Z,4.53
2019-02-24T03:31:35.237Z,4.37
2019-02-24T03:34:11.083Z,4.33
2019-02-24T03:38:01.331Z,4.60
2019-02-24T03:39:45.400Z,4.43
2019-02-24T03:42:22.714Z,4.33
2019-02-24T03:44:55.564Z,4.07
2019-02-24T03:47:36.569Z,4.43
2019-02-24T03:50:15.573Z,4.60
2019-02-24T03:52:46.736Z,4.13
2019-02-24T03:55:20.751Z,4.60
2019-02-24T03:57:57.941Z,4.87
2019-02-24T04:00:29.365Z,5.13
2019-02-24T04:03:09.635Z,4.60
2019-02-24T04:05:44.822Z,4.47
2019-02-24T04:08:25.166Z,4.70
2019-02-24T04:11:01.140Z,4.87
2019-02-24T04:13:35.209Z,4.50
2019-02-24T04:16:12.373Z,4.90
2019-02-24T04:19:02.837Z,4.80
2019-02-24T04:21:35.185Z,4.90
2019-02-24T04:24:10.765Z,5.33
2019-02-24T04:26:50.206Z,4.80
2019-02-24T04:29:25.173Z,4.60
2019-02-24T04:32:03.321Z,5.07
2019-02-24T04:34:36.804Z,4.70
2019-02-24T04:37:18.382Z,4.77
2019-02-24T04:43:23.036Z,5.23
2019-02-24T04:55:30.171Z,5.00
2019-02-24T05:01:13.585Z,4.47
2019-02-24T05:06:51.139Z,4.57
2019-02-24T05:12:28.148Z,4.00
2019-02-24T05:15:14.594Z,3.80
2019-02-24T05:18:00.743Z,4.90
2019-02-24T05:26:55.899Z,4.03
2019-02-24T05:32:40.701Z,3.10
2019-02-24T05:47:18.632Z,4.47
2019-02-24T05:56:27.301Z,4.93
2019-02-24T06:05:31.093Z,4.03
2019-02-24T06:10:46.531Z,2.70
2019-02-24T06:13:29.722Z,3.37
2019-02-24T06:16:12.588Z,3.80
2019-02-24T06:18:48.150Z,3.30
2019-02-24T06:21:38.548Z,2.53
2019-02-24T06:24:27.286Z,2.37
2019-02-24T06:27:01.066Z,2.47
2019-02-24T06:29:31.982Z,2.80
2019-02-24T06:32:24.565Z,3.20
2019-02-24T06:37:58.052Z,3.17
2019-02-24T06:40:39.586Z,5.13
2019-02-24T06:46:39.772Z,3.87
2019-02-24T06:49:11.935Z,3.63
2019-02-24T06:51:43.465Z,2.73
2019-02-24T06:54:25.556Z,4.00
2019-02-24T06:56:56.372Z,3.80
2019-02-24T06:59:39.337Z,4.83
2019-02-24T07:02:19.551Z,4.40
2019-02-24T07:04:53.962Z,4.67
2019-02-24T07:11:21.785Z,4.57
2019-02-24T07:13:51.908Z,5.57
2019-02-24T07:26:13.932Z,4.87
2019-02-24T07:29:04.736Z,3.83
2019-02-24T07:34:58.235Z,4.50
2019-02-24T07:37:23.109Z,5.97
2019-02-24T07:40:02.531Z,4.73
2019-02-24T07:42:36.977Z,6.47
2019-02-24T07:45:21.110Z,5.57
2019-02-24T07:50:49.426Z,6.23
2019-02-24T07:57:37.882Z,5.57
2019-02-24T08:00:31.915Z,4.90
2019-02-24T08:03:09.647Z,6.20
2019-02-24T08:05:46.500Z,5.20
2019-02-24T08:08:33.810Z,4.70
2019-02-24T08:17:02.820Z,5.43
2019-02-24T08:29:35.839Z,5.03
2019-02-24T08:32:16.055Z,5.07
2019-02-24T08:35:00.309Z,5.77
2019-02-24T08:47:12.100Z,6.83
2019-02-24T08:49:53.439Z,7.23
2019-02-24T08:55:22.257Z,6.17
2019-02-24T09:01:07.291Z,6.10
2019-02-24T09:07:18.987Z,5.53
2019-02-24T09:15:53.444Z,6.47
2019-02-24T09:31:06.610Z,5.10
2019-02-24T09:33:39.634Z,6.73
2019-02-24T09:39:24.320Z,6.30
2019-02-24T09:41:59.247Z,6.40
2019-02-24T09:48:47.252Z,6.03
2019-02-24T09:57:16.455Z,5.50
2019-02-24T09:59:59.220Z,4.80
2019-02-24T10:03:12.022Z,6.40
2019-02-24T10:05:57.252Z,5.10
2019-02-24T10:08:31.227Z,7.30
2019-02-24T10:45:02.833Z,6.47
2019-02-24T10:47:59.624Z,5.90
2019-02-24T10:53:59.367Z,5.27
2019-02-24T11:22:53.747Z,5.47
2019-02-24T11:26:08.897Z,4.60
2019-02-24T11:28:20.790Z,4.53
2019-02-24T11:31:17.990Z,4.07
2019-02-24T11:33:52.008Z,4.87
2019-02-24T11:36:35.899Z,4.37
2019-02-24T11:39:13.985Z,5.17
2019-02-24T11:41:56.514Z,5.40
2019-02-24T11:50:40.756Z,5.43
2019-02-24T11:59:45.363Z,5.00
2019-02-24T12:02:33.953Z,4.67
2019-02-24T12:08:21.773Z,4.73
2019-02-24T12:11:10.960Z,4.70
2019-02-24T12:14:00.528Z,5.70
2019-02-24T12:16:30.997Z,5.40
2019-02-24T12:20:12.113Z,4.80
2019-02-24T12:21:51.531Z,5.90
2019-02-24T12:24:32.130Z,5.80
2019-02-24T12:27:16.243Z,5.67
2019-02-24T12:29:51.604Z,5.03
2019-02-24T12:32:51.565Z,4.53
2019-02-24T12:35:19.526Z,4.27
2019-02-24T12:40:57.758Z,4.47
2019-02-24T12:43:56.079Z,4.13
2019-02-24T12:49:29.800Z,4.70
2019-02-24T12:52:12.474Z,4.83
2019-02-24T12:57:42.021Z,4.47
2019-02-24T13:00:44.444Z,4.87
2019-02-24T13:21:49.276Z,4.53
2019-02-24T13:24:20.503Z,4.33
2019-02-24T13:26:52.516Z,4.67
2019-02-24T13:29:31.018Z,5.10
2019-02-24T13:32:14.970Z,5.10
2019-02-24T13:34:45.899Z,4.63
2019-02-24T13:37:32.987Z,5.63
2019-02-24T13:40:08.938Z,4.67
2019-02-24T13:42:43.398Z,4.90
2019-02-24T13:45:17.902Z,4.00
2019-02-24T13:47:50.142Z,4.97
2019-02-24T13:50:24.045Z,4.73
2019-02-24T13:52:54.097Z,4.30
2019-02-24T13:58:29.090Z,4.00
2019-02-24T14:00:59.019Z,4.50
2019-02-24T14:03:30.491Z,4.17
2019-02-24T14:06:02.540Z,4.17
2019-02-24T14:08:35.430Z,4.97
2019-02-24T14:11:09.076Z,5.10
2019-02-24T14:13:57.574Z,4.80
2019-02-24T14:16:30.912Z,5.23
2019-02-24T14:19:03.359Z,5.87
2019-02-24T14:21:39.619Z,5.80
2019-02-24T14:24:13.725Z,4.57
2019-02-24T14:26:48.149Z,4.30
2019-02-24T14:29:23.947Z,5.03
2019-02-24T14:38:04.114Z,4.50
2019-02-24T14:43:47.640Z,5.00
2019-02-24T14:52:33.221Z,3.77
2019-02-24T15:04:34.553Z,3.93
2019-02-24T15:07:17.851Z,3.77
2019-02-24T15:10:36.726Z,3.50
2019-02-24T15:12:54.724Z,5.80
2019-02-24T15:15:41.662Z,4.17
2019-02-24T15:18:12.788Z,3.70
2019-02-24T15:20:46.429Z,4.20
2019-02-24T15:26:12.186Z,3.90
2019-02-24T15:28:55.660Z,4.13
2019-02-24T15:35:04.101Z,3.73
2019-02-24T15:37:49.283Z,3.83
2019-02-24T15:49:30.330Z,5.60
2019-02-24T16:01:08.208Z,5.50
2019-02-24T16:06:40.594Z,5.33
2019-02-24T16:09:26.933Z,6.53
2019-02-24T16:12:01.251Z,5.40
2019-02-24T16:14:45.315Z,5.30
2019-02-24T16:20:27.210Z,5.47
2019-02-24T16:23:01.465Z,5.10
2019-02-24T16:25:43.081Z,5.40
2019-02-24T16:28:19.378Z,5.77
2019-02-24T16:31:03.340Z,5.30
2019-02-24T16:33:38.196Z,6.40
2019-02-24T16:36:12.119Z,6.57
2019-02-24T16:38:50.235Z,6.10
2019-02-24T16:41:26.987Z,7.30
2019-02-24T16:43:58.747Z,7.33
2019-02-24T16:49:26.246Z,7.10
2019-02-24T16:52:00.350Z,7.17
2019-02-24T16:54:35.977Z,7.60
2019-02-24T16:57:08.351Z,7.47
2019-02-24T16:59:40.334Z,8.67
2019-02-24T17:02:22.948Z,9.13
2019-02-24T17:04:59.916Z,9.43
2019-02-24T17:07:32.811Z,9.23
2019-02-24T17:10:09.940Z,9.57
2019-02-24T17:12:43.207Z,9.70
2019-02-24T17:15:16.227Z,8.60
2019-02-24T17:20:59.764Z,8.17
2019-02-24T17:23:52.453Z,9.13
2019-02-24T17:26:25.178Z,9.30
2019-02-24T17:29:03.952Z,9.83
2019-02-24T17:31:39.570Z,9.70
2019-02-24T17:34:14.706Z,10.50
2019-02-24T17:36:49.488Z,9.90
2019-02-24T17:39:24.556Z,9.63
2019-02-24T17:41:56.876Z,11.20
2019-02-24T17:44:32.688Z,9.83
2019-02-24T17:47:05.728Z,9.80
2019-02-24T17:49:38.069Z,8.40
2019-02-24T17:52:14.153Z,7.93
2019-02-24T17:58:02.731Z,6.47
2019-02-24T18:00:44.573Z,7.03
2019-02-24T18:03:23.659Z,6.83
2019-02-24T18:07:57.377Z,6.73
2019-02-24T18:18:03.271Z,5.77
2019-02-24T18:20:52.587Z,5.40
2019-02-24T18:23:33.666Z,5.03
2019-02-24T18:32:42.896Z,4.93
2019-02-24T18:35:21.295Z,5.60
2019-02-24T19:02:40.314Z,6.63
2019-02-24T19:36:54.299Z,10.13
2019-02-24T19:39:46.750Z,8.97
2019-02-24T19:42:20.550Z,9.03
2019-02-24T19:48:06.246Z,11.00
2019-02-24T19:50:42.081Z,10.27
2019-02-24T19:53:25.344Z,9.63
2019-02-24T19:56:03.529Z,9.83
2019-02-24T19:58:40.958Z,12.23
2019-02-24T20:04:27.751Z,10.93
2019-02-24T20:10:25.622Z,11.40
2019-02-24T20:16:06.757Z,11.23
2019-02-24T20:18:41.902Z,12.03
2019-02-24T20:21:38.224Z,11.87
2019-02-24T20:24:19.050Z,11.53
2019-02-24T20:27:05.580Z,11.47
2019-02-24T20:29:50.373Z,12.70
2019-02-24T20:32:24.895Z,12.27
2019-02-24T20:34:59.066Z,13.43
2019-02-24T20:38:05.009Z,12.63
2019-02-24T20:46:51.289Z,12.77
2019-02-24T20:49:29.246Z,14.00
2019-02-24T20:52:07.454Z,13.20
2019-02-24T20:54:48.944Z,12.27
2019-02-24T20:57:35.495Z,12.30
2019-02-24T21:00:13.821Z,13.60
2019-02-24T21:02:50.404Z,14.00
2019-02-24T21:05:28.653Z,14.17
2019-02-24T21:08:00.874Z,13.83
2019-02-24T21:10:34.501Z,14.63
2019-02-24T21:13:08.394Z,14.20
2019-02-24T21:15:43.302Z,15.23
2019-02-24T21:18:19.689Z,13.53
2019-02-24T21:20:58.574Z,14.03
2019-02-24T21:23:29.323Z,13.93
2019-02-24T21:26:18.646Z,14.53
2019-02-24T21:28:53.641Z,14.67
2019-02-24T21:31:33.565Z,14.90
2019-02-24T21:34:09.185Z,16.53
2019-02-24T21:36:45.529Z,15.70
2019-02-24T21:39:27.360Z,15.30
2019-02-24T21:42:07.151Z,15.80
2019-02-24T21:44:44.119Z,15.83
2019-02-24T21:47:22.271Z,15.27
2019-02-24T21:50:01.735Z,12.83
2019-02-24T21:52:45.271Z,14.40
2019-02-24T21:55:37.344Z,15.03
2019-02-24T21:58:09.695Z,16.63
2019-02-24T22:00:59.990Z,16.00
2019-02-24T22:59:46.085Z,18.83
2019-02-24T23:49:49.377Z,24.47
